TimeEDT,TemperatureF,Dew PointF,Humidity,Sea Level PressureIn,VisibilityMPH,Wind Direction,Wind SpeedMPH,Gust SpeedMPH,PrecipitationIn,Events,Conditions,WindDirDegrees,DateUTC
12:15 AM,53.6,53.6,100,30.15,5.0,Calm,Calm,-,N/A,,Clear,0,2013-04-08 04:15:00
12:35 AM,53.6,53.6,100,30.14,6.0,Calm,Calm,-,N/A,,Clear,0,2013-04-08 04:35:00
12:55 AM,51.8,51.8,100,30.14,6.0,Calm,Calm,-,N/A,,Clear,0,2013-04-08 04:55:00
1:15 AM,51.8,51.8,100,30.14,7.0,Calm,Calm,-,N/A,,Clear,0,2013-04-08 05:15:00
1:35 AM,51.8,51.8,100,30.14,5.0,Calm,Calm,-,N/A,,Clear,0,2013-04-08 05:35:00
1:55 AM,51.8,51.8,100,30.13,3.0,Calm,Calm,-,N/A,,Clear,0,2013-04-08 05:55:00
2:15 AM,50.0,50.0,100,30.13,4.0,Calm,Calm,-,N/A,,Clear,0,2013-04-08 06:15:00
2:35 AM,50.0,50.0,100,30.13,5.0,Calm,Calm,-,N/A,,Clear,0,2013-04-08 06:35:00
2:55 AM,50.0,50.0,100,30.12,4.0,Calm,Calm,-,N/A,,Clear,0,2013-04-08 06:55:00
3:15 AM,50.0,50.0,100,30.12,2.5,Calm,Calm,-,N/A,,Clear,0,2013-04-08 07:15:00
3:35 AM,50.0,50.0,100,30.11,4.0,Calm,Calm,-,N/A,,Clear,0,2013-04-08 07:35:00
3:55 AM,50.0,50.0,100,30.11,5.0,Calm,Calm,-,N/A,,Clear,0,2013-04-08 07:55:00
4:15 AM,50.0,50.0,100,30.11,5.0,Calm,Calm,-,N/A,,Clear,0,2013-04-08 08:15:00
4:35 AM,50.0,50.0,100,30.10,3.0,Calm,Calm,-,N/A,,Clear,0,2013-04-08 08:35:00
4:55 AM,50.0,50.0,100,30.11,5.0,Calm,Calm,-,N/A,,Clear,0,2013-04-08 08:55:00
5:15 AM,48.2,48.2,100,30.11,5.0,Calm,Calm,-,N/A,,Clear,0,2013-04-08 09:15:00
5:35 AM,48.2,48.2,100,30.11,6.0,Calm,Calm,-,N/A,,Clear,0,2013-04-08 09:35:00
5:55 AM,48.2,48.2,100,30.12,6.0,Calm,Calm,-,N/A,,Clear,0,2013-04-08 09:55:00
6:15 AM,48.2,48.2,100,30.12,5.0,Calm,Calm,-,N/A,,Clear,0,2013-04-08 10:15:00
6:35 AM,48.2,48.2,100,30.13,4.0,Calm,Calm,-,N/A,,Clear,0,2013-04-08 10:35:00
6:50 AM,48.2,48.2,100,30.13,5.0,Calm,Calm,-,N/A,,Clear,0,2013-04-08 10:50:00
7:50 AM,48.2,48.2,100,30.16,10.0,Calm,Calm,-,N/A,,Clear,0,2013-04-08 11:50:00
8:50 AM,59.0,59.0,100,30.18,10.0,Calm,Calm,-,N/A,,Clear,0,2013-04-08 12:50:00
9:50 AM,68.0,62.6,83,30.17,10.0,Calm,Calm,-,N/A,,Clear,0,2013-04-08 13:50:00
10:50 AM,73.4,60.8,65,30.17,10.0,SSE,9.2,-,N/A,,Clear,150,2013-04-08 14:50:00
11:50 AM,77.0,57.2,50,30.18,10.0,ESE,6.9,-,N/A,,Scattered Clouds,120,2013-04-08 15:50:00
12:50 PM,77.0,57.2,50,30.17,10.0,East,9.2,-,N/A,,Scattered Clouds,90,2013-04-08 16:50:00
1:50 PM,80.6,55.4,42,30.14,10.0,Variable,5.8,-,N/A,,Scattered Clouds,0,2013-04-08 17:50:00
2:50 PM,80.6,55.4,42,30.13,10.0,ESE,5.8,-,N/A,,Scattered Clouds,110,2013-04-08 18:50:00
3:50 PM,80.6,55.4,42,30.10,10.0,Variable,5.8,-,N/A,,Scattered Clouds,0,2013-04-08 19:50:00
4:50 PM,80.6,55.4,42,30.09,10.0,ESE,4.6,-,N/A,,Scattered Clouds,120,2013-04-08 20:50:00
5:50 PM,77.0,59.0,54,30.10,10.0,East,15.0,-,N/A,,Partly Cloudy,90,2013-04-08 21:50:00
7:50 PM,71.6,59.0,64,30.12,10.0,ESE,13.8,-,N/A,,Clear,120,2013-04-08 23:50:00
8:15 PM,71.6,59.0,64,30.12,10.0,ESE,4.6,-,N/A,,Clear,110,2013-04-09 00:15:00
8:35 PM,69.8,59.0,68,30.13,10.0,ESE,4.6,-,N/A,,Clear,110,2013-04-09 00:35:00
8:55 PM,68.0,60.8,78,30.13,10.0,ESE,3.5,-,N/A,,Clear,110,2013-04-09 00:55:00
9:15 PM,68.0,60.8,78,30.14,10.0,Calm,Calm,-,N/A,,Clear,0,2013-04-09 01:15:00
9:35 PM,66.2,60.8,83,30.15,10.0,Calm,Calm,-,N/A,,Clear,0,2013-04-09 01:35:00
9:55 PM,66.2,60.8,83,30.15,10.0,Calm,Calm,-,N/A,,Clear,0,2013-04-09 01:55:00
10:15 PM,66.2,60.8,83,30.16,10.0,Calm,Calm,-,N/A,,Clear,0,2013-04-09 02:15:00
10:35 PM,64.4,60.8,88,30.16,10.0,Calm,Calm,-,N/A,,Clear,0,2013-04-09 02:35:00
10:55 PM,62.6,59.0,88,30.16,10.0,Calm,Calm,-,N/A,,Clear,0,2013-04-09 02:55:00
11:15 PM,60.8,59.0,94,30.16,10.0,Calm,Calm,-,N/A,,Clear,0,2013-04-09 03:15:00
11:35 PM,59.0,59.0,100,30.16,10.0,Calm,Calm,-,N/A,,Clear,0,2013-04-09 03:35:00
11:55 PM,59.0,59.0,100,30.16,10.0,Calm,Calm,-,N/A,,Clear,0,2013-04-09 03:55:00